Time;durP1;ratioP1;P1;durP2;ratioP2;P2;SDS_P1;SDS_P2;PMS_P1;PMS_P2;Temp;Humidity;BMP_temperature;BMP_pressure;BME280_temperature;BME280_humidity;BME280_pressure;Samples;Min_cycle;Max_cycle;Signal;HPM_P1;HPM_P2
2022/04/08 00:01:58;;;;;;;9.50;6.13;;;5.40;99.90;;;;;;4784279;29;20581;-75
2022/04/08 00:04:25;;;;;;;5.95;5.53;;;5.40;99.90;;;;;;4787015;29;20084;-73
2022/04/08 00:06:52;;;;;;;11.65;6.25;;;5.40;99.90;;;;;;4769649;29;20513;-74
2022/04/08 00:09:19;;;;;;;5.93;5.47;;;5.40;99.90;;;;;;4783883;29;20062;-74
2022/04/08 00:11:46;;;;;;;9.30;6.07;;;5.40;99.90;;;;;;4784654;29;20127;-75
2022/04/08 00:14:13;;;;;;;8.38;4.97;;;5.40;99.90;;;;;;4768941;29;20051;-73
2022/04/08 00:16:40;;;;;;;11.32;4.90;;;5.30;99.90;;;;;;4780213;29;20054;-75
2022/04/08 00:19:08;;;;;;;4.60;4.20;;;5.20;99.90;;;;;;4778448;29;20058;-75
2022/04/08 00:21:34;;;;;;;5.25;4.55;;;5.20;99.90;;;;;;4786051;29;20526;-75
2022/04/08 00:24:02;;;;;;;7.32;4.80;;;5.10;99.90;;;;;;4785981;29;20055;-74
2022/04/08 00:26:29;;;;;;;12.38;4.57;;;5.10;99.90;;;;;;4787827;29;20062;-75
2022/04/08 00:28:55;;;;;;;12.52;4.82;;;5.10;99.90;;;;;;4774298;29;20345;-74
2022/04/08 00:31:22;;;;;;;7.13;4.95;;;5.10;99.90;;;;;;4782664;29;20715;-75
2022/04/08 00:33:49;;;;;;;11.77;5.57;;;5.10;99.90;;;;;;4787435;29;20223;-74
2022/04/08 00:36:16;;;;;;;7.45;5.13;;;5.10;99.90;;;;;;4784753;29;20059;-73
2022/04/08 00:38:43;;;;;;;11.93;6.38;;;5.20;99.90;;;;;;4786644;29;20301;-75
2022/04/08 00:41:10;;;;;;;8.93;6.45;;;5.20;99.90;;;;;;4769952;29;20055;-76
2022/04/08 00:43:40;;;;;;;10.82;6.20;;;5.30;99.90;;;;;;4771296;29;20706;-74
2022/04/08 00:46:09;;;;;;;12.98;7.30;;;5.30;99.90;;;;;;4773727;29;20047;-74
2022/04/08 00:48:37;;;;;;;11.88;7.30;;;5.30;99.90;;;;;;4787755;29;20165;-75
2022/04/08 00:51:05;;;;;;;11.82;7.45;;;5.30;99.90;;;;;;4785631;29;20055;-74
2022/04/08 00:53:36;;;;;;;13.48;7.50;;;5.30;99.90;;;;;;4788608;29;20051;-74
2022/04/08 00:56:04;;;;;;;11.30;6.10;;;5.30;99.90;;;;;;4789931;29;20054;-74
2022/04/08 00:58:31;;;;;;;11.30;6.75;;;5.30;99.90;;;;;;4794328;29;20066;-76
2022/04/08 01:00:59;;;;;;;7.00;5.78;;;5.30;99.90;;;;;;4770138;29;20051;-75
2022/04/08 01:03:26;;;;;;;8.75;6.40;;;5.20;99.90;;;;;;4769827;29;20139;-74
2022/04/08 01:05:53;;;;;;;10.07;6.15;;;5.20;99.90;;;;;;4771195;29;20275;-75
2022/04/08 01:08:20;;;;;;;12.10;5.22;;;5.20;99.90;;;;;;4768029;29;20389;-73
2022/04/08 01:10:49;;;;;;;11.68;5.30;;;5.20;99.90;;;;;;4767943;29;20044;-74
2022/04/08 01:13:16;;;;;;;5.63;5.00;;;5.20;99.90;;;;;;4755297;29;20112;-74
2022/04/08 01:15:42;;;;;;;13.45;5.68;;;5.20;99.90;;;;;;4774654;29;20051;-74
2022/04/08 01:18:10;;;;;;;7.10;5.00;;;5.20;99.90;;;;;;4755832;29;20515;-74
2022/04/08 01:20:36;;;;;;;8.18;5.47;;;5.20;99.90;;;;;;4785471;29;20273;-75
2022/04/08 01:23:04;;;;;;;7.82;5.13;;;5.20;99.90;;;;;;4770485;29;20058;-75
2022/04/08 01:25:31;;;;;;;5.88;5.28;;;5.20;99.90;;;;;;4789836;29;20423;-74
2022/04/08 01:27:58;;;;;;;10.57;5.47;;;5.20;99.90;;;;;;4775217;29;20050;-74
2022/04/08 01:30:25;;;;;;;10.02;6.80;;;5.10;99.90;;;;;;4771908;29;20519;-74
2022/04/08 01:32:52;;;;;;;10.38;7.10;;;5.10;99.90;;;;;;4770922;29;20773;-73
2022/04/08 01:35:18;;;;;;;8.15;7.20;;;5.10;99.90;;;;;;4770624;29;20062;-74
2022/04/08 01:37:45;;;;;;;12.68;7.53;;;5.00;99.90;;;;;;4770623;29;20087;-73
2022/04/08 01:40:12;;;;;;;14.20;7.70;;;5.00;99.90;;;;;;4786454;29;20355;-74
2022/04/08 01:42:39;;;;;;;11.43;5.68;;;4.90;99.90;;;;;;4767804;29;20426;-74
2022/04/08 01:45:08;;;;;;;11.65;7.13;;;4.90;99.90;;;;;;4786427;29;20062;-74
2022/04/08 01:47:35;;;;;;;10.13;6.47;;;4.90;99.90;;;;;;4794178;29;20062;-72
2022/04/08 01:50:02;;;;;;;17.08;8.85;;;4.80;99.90;;;;;;4768610;29;20509;-72
2022/04/08 01:52:29;;;;;;;19.30;10.30;;;4.70;99.90;;;;;;4770062;29;20055;-73
2022/04/08 01:54:56;;;;;;;15.85;9.50;;;4.70;99.90;;;;;;4785865;29;20071;-73
2022/04/08 01:57:23;;;;;;;18.42;10.23;;;4.70;99.90;;;;;;4787874;29;20047;-73
2022/04/08 01:59:52;;;;;;;13.90;9.02;;;4.70;99.90;;;;;;4768671;29;20063;-73
2022/04/08 02:02:19;;;;;;;18.88;10.13;;;4.70;99.90;;;;;;4770204;29;20055;-73
2022/04/08 02:04:47;;;;;;;14.20;8.63;;;4.60;99.90;;;;;;4784421;29;20151;-74
2022/04/08 02:07:14;;;;;;;19.27;10.63;;;4.60;99.90;;;;;;4752718;29;20065;-73
2022/04/08 02:09:40;;;;;;;19.83;9.45;;;4.60;99.90;;;;;;4768625;29;20468;-74
2022/04/08 02:12:07;;;;;;;18.60;9.60;;;4.60;99.90;;;;;;4786025;29;20051;-74
2022/04/08 02:14:34;;;;;;;16.58;9.15;;;4.60;99.90;;;;;;4779337;29;20786;-72
2022/04/08 02:17:01;;;;;;;17.00;9.82;;;4.50;99.90;;;;;;4778787;29;20055;-73
2022/04/08 02:19:28;;;;;;;15.27;9.20;;;4.50;99.90;;;;;;4768218;29;20081;-74
2022/04/08 02:21:55;;;;;;;14.95;9.40;;;4.50;99.90;;;;;;4771366;29;20059;-73
2022/04/08 02:24:22;;;;;;;14.32;8.05;;;4.60;99.90;;;;;;4788868;29;20070;-73
2022/04/08 02:26:48;;;;;;;9.45;6.18;;;4.50;99.90;;;;;;4774656;29;20051;-74
2022/04/08 02:29:15;;;;;;;10.40;6.25;;;4.50;99.90;;;;;;4771135;29;20152;-75
2022/04/08 02:31:42;;;;;;;12.40;6.57;;;4.50;99.90;;;;;;4785105;29;20055;-73
2022/04/08 02:34:09;;;;;;;12.90;6.03;;;4.50;99.90;;;;;;4787477;29;20130;-74
2022/04/08 02:36:36;;;;;;;11.57;5.63;;;4.50;99.90;;;;;;4787052;29;20051;-74
2022/04/08 02:39:03;;;;;;;13.70;5.47;;;4.50;99.90;;;;;;4788124;29;20526;-74
2022/04/08 02:41:30;;;;;;;13.50;4.32;;;4.50;99.90;;;;;;4771404;29;20055;-73
2022/04/08 02:43:57;;;;;;;10.85;4.15;;;4.40;99.90;;;;;;4778362;29;20261;-74
2022/04/08 02:46:23;;;;;;;11.20;4.20;;;4.40;99.90;;;;;;4787621;29;20268;-72
2022/04/08 02:48:50;;;;;;;8.88;3.35;;;4.40;99.90;;;;;;4770926;29;20108;-73
2022/04/08 02:51:17;;;;;;;9.35;3.75;;;4.40;99.90;;;;;;4767543;29;20043;-74
2022/04/08 02:53:44;;;;;;;4.50;2.53;;;4.40;99.90;;;;;;4768525;29;20058;-74
2022/04/08 02:56:11;;;;;;;9.00;3.10;;;4.50;99.90;;;;;;4775993;29;20499;-73
2022/04/08 02:58:37;;;;;;;6.72;2.53;;;4.40;99.90;;;;;;4769293;29;20055;-72
2022/04/08 03:01:04;;;;;;;9.80;2.78;;;4.40;99.90;;;;;;4770592;29;20089;-74
2022/04/08 03:03:31;;;;;;;28.52;4.32;;;4.40;99.90;;;;;;4771405;29;20059;-73
2022/04/08 03:05:58;;;;;;;8.30;3.53;;;4.40;99.90;;;;;;4787606;29;20133;-72
2022/04/08 03:08:25;;;;;;;11.57;3.75;;;4.40;99.90;;;;;;4771000;29;20054;-73
2022/04/08 03:10:53;;;;;;;9.65;4.03;;;4.40;99.90;;;;;;4785749;29;20051;-72
2022/04/08 03:13:19;;;;;;;6.60;4.82;;;4.30;99.90;;;;;;4787917;29;20128;-73
2022/04/08 03:15:46;;;;;;;8.35;3.90;;;4.40;99.90;;;;;;4786934;29;20620;-73
2022/04/08 03:18:13;;;;;;;4.45;3.13;;;4.40;99.90;;;;;;4771671;29;20059;-73
2022/04/08 03:20:40;;;;;;;8.13;3.20;;;4.30;99.90;;;;;;4779178;29;20674;-73
2022/04/08 03:23:07;;;;;;;6.57;2.60;;;4.20;99.90;;;;;;4779791;29;20088;-75
2022/04/08 03:25:34;;;;;;;8.40;3.05;;;4.00;99.90;;;;;;4785492;29;20302;-74
2022/04/08 03:28:00;;;;;;;5.22;2.95;;;3.90;99.90;;;;;;4769958;29;20042;-74
2022/04/08 03:30:27;;;;;;;6.20;3.00;;;3.90;99.90;;;;;;4773356;29;20262;-73
2022/04/08 03:32:55;;;;;;;5.80;3.65;;;3.90;99.90;;;;;;4786227;29;20057;-74
2022/04/08 03:35:22;;;;;;;7.80;4.32;;;3.80;99.90;;;;;;4786177;29;20059;-73
2022/04/08 03:37:49;;;;;;;7.00;3.17;;;3.80;99.90;;;;;;4777308;29;20081;-73
2022/04/08 03:40:16;;;;;;;8.30;3.22;;;3.80;99.90;;;;;;4755411;29;20055;-73
2022/04/08 03:42:43;;;;;;;8.45;3.65;;;3.90;99.90;;;;;;4767320;29;20058;-72
2022/04/08 03:45:13;;;;;;;15.27;3.53;;;3.90;99.90;;;;;;4785732;29;20139;-72
2022/04/08 03:47:40;;;;;;;5.30;2.42;;;3.90;99.90;;;;;;4771893;29;20062;-73
2022/04/08 03:50:07;;;;;;;5.43;1.95;;;3.80;99.90;;;;;;4770220;29;20066;-74
2022/04/08 03:52:33;;;;;;;8.55;2.03;;;3.60;99.90;;;;;;4752678;30;20052;-73
2022/04/08 03:55:01;;;;;;;3.95;1.98;;;3.50;99.90;;;;;;4768113;30;20055;-74
2022/04/08 03:57:28;;;;;;;7.20;2.65;;;3.50;99.90;;;;;;4767483;29;20059;-73
2022/04/08 03:59:55;;;;;;;9.43;2.88;;;3.40;99.90;;;;;;4772436;29;20055;-73
2022/04/08 04:02:22;;;;;;;4.10;3.08;;;3.50;99.90;;;;;;4786440;29;20085;-74
2022/04/08 04:04:49;;;;;;;7.50;4.60;;;3.50;99.90;;;;;;4756017;29;20062;-73
2022/04/08 04:07:17;;;;;;;11.38;4.28;;;3.60;99.90;;;;;;4770693;29;20051;-73
2022/04/08 04:09:46;;;;;;;10.85;4.05;;;3.70;99.90;;;;;;4785923;29;20046;-74
2022/04/08 04:12:13;;;;;;;5.70;2.65;;;3.80;99.90;;;;;;4769630;29;20058;-74
2022/04/08 04:14:40;;;;;;;2.30;1.40;;;3.60;99.90;;;;;;4777346;29;20763;-74
2022/04/08 04:17:06;;;;;;;2.92;1.85;;;3.00;99.90;;;;;;4785159;29;20057;-74
2022/04/08 04:19:33;;;;;;;5.70;2.63;;;2.70;99.90;;;;;;4785866;29;20065;-72
2022/04/08 04:22:00;;;;;;;4.25;2.53;;;2.70;99.90;;;;;;4774492;29;20135;-74
2022/04/08 04:24:27;;;;;;;6.18;4.15;;;2.80;99.90;;;;;;4769211;29;20062;-73
2022/04/08 04:26:54;;;;;;;6.68;3.35;;;3.00;99.90;;;;;;4769925;29;20483;-74
2022/04/08 04:29:21;;;;;;;12.27;4.53;;;3.20;99.90;;;;;;4769172;29;20537;-74
2022/04/08 04:31:47;;;;;;;9.75;3.78;;;3.30;99.90;;;;;;4782541;29;20435;-74
2022/04/08 04:34:15;;;;;;;16.00;4.25;;;3.30;99.90;;;;;;4785559;29;20063;-74
2022/04/08 04:36:42;;;;;;;6.85;2.90;;;3.30;99.90;;;;;;4783774;29;20061;-74
2022/04/08 04:39:09;;;;;;;10.38;3.22;;;3.30;99.90;;;;;;4781197;29;20216;-74
2022/04/08 04:41:35;;;;;;;13.88;3.55;;;3.30;99.90;;;;;;4769421;29;20054;-73
2022/04/08 04:44:02;;;;;;;12.75;3.78;;;3.30;99.90;;;;;;4772309;29;20225;-72
2022/04/08 04:46:29;;;;;;;5.75;2.85;;;3.40;99.90;;;;;;4775855;29;20059;-73
2022/04/08 04:48:56;;;;;;;4.60;3.05;;;3.30;99.90;;;;;;4787297;29;20107;-73
2022/04/08 04:51:23;;;;;;;6.70;2.83;;;3.30;99.90;;;;;;4782084;29;20112;-74
2022/04/08 04:53:50;;;;;;;11.88;2.78;;;3.30;99.90;;;;;;4768193;29;20105;-73
2022/04/08 04:56:17;;;;;;;11.43;3.03;;;3.30;99.90;;;;;;4781602;29;20050;-73
2022/04/08 04:58:43;;;;;;;9.23;3.58;;;3.30;99.90;;;;;;4773026;29;20544;-74
2022/04/08 05:01:10;;;;;;;13.52;4.53;;;3.30;99.90;;;;;;4774732;29;20115;-73
2022/04/08 05:03:40;;;;;;;17.35;4.00;;;3.30;99.90;;;;;;4772117;29;20537;-72
2022/04/08 05:06:07;;;;;;;15.10;5.07;;;3.30;99.90;;;;;;4785472;29;20130;-73
2022/04/08 05:08:33;;;;;;;9.77;4.32;;;3.30;99.90;;;;;;4769251;29;20086;-73
2022/04/08 05:11:00;;;;;;;20.83;5.80;;;3.20;99.90;;;;;;4784078;29;20119;-72
2022/04/08 05:13:27;;;;;;;10.57;4.97;;;3.20;99.90;;;;;;4774097;29;20130;-72
2022/04/08 05:15:57;;;;;;;24.00;6.15;;;3.20;99.90;;;;;;4779885;29;20062;-73
2022/04/08 05:18:23;;;;;;;16.92;4.75;;;3.30;99.90;;;;;;4769502;29;20078;-72
2022/04/08 05:20:52;;;;;;;16.20;5.18;;;3.30;99.90;;;;;;4783421;29;20246;-72
2022/04/08 05:23:20;;;;;;;15.60;4.80;;;3.30;99.90;;;;;;4769266;29;20051;-73
2022/04/08 05:25:47;;;;;;;11.65;5.32;;;3.30;99.90;;;;;;4766746;29;20358;-71
2022/04/08 05:28:15;;;;;;;15.57;5.03;;;3.30;99.90;;;;;;4803096;29;20057;-72
2022/04/08 05:30:43;;;;;;;16.30;5.07;;;3.30;99.90;;;;;;4775902;29;20300;-73
2022/04/08 05:33:14;;;;;;;11.57;4.70;;;3.30;99.90;;;;;;4769961;29;20078;-73
2022/04/08 05:35:41;;;;;;;20.13;6.22;;;3.30;99.90;;;;;;4753944;29;20050;-74
2022/04/08 05:38:08;;;;;;;15.82;6.90;;;3.30;99.90;;;;;;4785327;29;20361;-72
2022/04/08 05:40:35;;;;;;;14.95;5.28;;;3.30;99.90;;;;;;4766574;29;20161;-73
2022/04/08 05:43:02;;;;;;;18.10;6.63;;;3.40;99.90;;;;;;4779710;29;20432;-73
2022/04/08 05:45:29;;;;;;;14.73;5.15;;;3.40;99.90;;;;;;4779365;29;20475;-71
2022/04/08 05:47:56;;;;;;;15.57;5.22;;;3.50;99.90;;;;;;4767568;29;20448;-72
2022/04/08 05:50:22;;;;;;;14.23;5.78;;;3.40;99.90;;;;;;4766499;29;20125;-72
2022/04/08 05:52:51;;;;;;;13.77;5.93;;;3.40;99.90;;;;;;4779191;29;20066;-71
2022/04/08 05:55:18;;;;;;;23.83;6.18;;;3.50;99.90;;;;;;4777785;29;20520;-72
2022/04/08 05:57:46;;;;;;;24.38;6.35;;;3.50;99.90;;;;;;4769138;29;20058;-72
2022/04/08 06:00:14;;;;;;;17.63;6.65;;;3.60;99.90;;;;;;4796501;29;20356;-71
2022/04/08 06:02:47;;;;;;;16.23;5.90;;;3.50;99.90;;;;;;4789515;29;20058;-72
2022/04/08 06:05:18;;;;;;;19.63;6.43;;;3.60;99.90;;;;;;4765946;29;20050;-72
2022/04/08 06:07:47;;;;;;;16.88;5.82;;;3.50;99.90;;;;;;4768821;29;20059;-72
2022/04/08 06:10:18;;;;;;;23.85;6.93;;;3.50;99.90;;;;;;4766730;29;20051;-73
2022/04/08 06:12:46;;;;;;;23.33;8.23;;;3.50;99.90;;;;;;4761368;29;20087;-71
2022/04/08 06:15:14;;;;;;;20.75;6.57;;;3.60;99.90;;;;;;4768169;29;20116;-72
2022/04/08 06:17:40;;;;;;;17.52;7.05;;;3.70;99.90;;;;;;4749387;29;20182;-72
2022/04/08 06:20:10;;;;;;;18.52;6.22;;;3.90;99.90;;;;;;4767063;29;20425;-73
2022/04/08 06:22:39;;;;;;;15.80;6.15;;;4.00;99.90;;;;;;4767252;29;20054;-73
2022/04/08 06:25:08;;;;;;;21.20;5.68;;;4.10;99.90;;;;;;4784754;29;20067;-72
2022/04/08 06:27:35;;;;;;;20.75;6.80;;;4.10;99.90;;;;;;4797649;29;20504;-72
2022/04/08 06:30:07;;;;;;;19.15;6.47;;;4.10;99.90;;;;;;4775683;29;20085;-71
2022/04/08 06:32:34;;;;;;;22.45;7.00;;;4.10;99.90;;;;;;4765797;29;20108;-73
2022/04/08 06:35:01;;;;;;;14.70;6.65;;;4.10;99.90;;;;;;4804703;24;20050;-76
2022/04/08 06:37:28;;;;;;;22.17;9.25;;;4.00;99.90;;;;;;4815844;29;20054;-75
2022/04/08 06:39:55;;;;;;;17.67;7.70;;;4.00;99.90;;;;;;4819945;29;20062;-76
2022/04/08 06:42:27;;;;;;;19.65;7.80;;;4.10;99.90;;;;;;4815601;29;20055;-76
2022/04/08 06:44:53;;;;;;;12.82;7.65;;;4.10;99.90;;;;;;4790055;29;20531;-75
2022/04/08 06:47:20;;;;;;;17.63;7.10;;;4.10;99.90;;;;;;4781153;29;20055;-76
2022/04/08 06:49:47;;;;;;;22.63;8.52;;;4.20;99.90;;;;;;4782329;29;20083;-77
2022/04/08 06:52:13;;;;;;;20.13;9.35;;;4.30;99.90;;;;;;4782369;29;20065;-77
2022/04/08 06:54:40;;;;;;;14.05;7.95;;;4.40;99.90;;;;;;4783151;29;20059;-78
2022/04/08 06:57:07;;;;;;;16.13;9.73;;;4.50;99.90;;;;;;4790468;29;20562;-77
2022/04/08 06:59:35;;;;;;;19.98;9.77;;;4.50;99.90;;;;;;4798837;29;20059;-77
2022/04/08 07:02:02;;;;;;;19.23;11.57;;;4.60;99.90;;;;;;4798143;29;20108;-76
2022/04/08 07:04:30;;;;;;;14.77;11.25;;;4.50;99.90;;;;;;4798820;29;20282;-78
2022/04/08 07:06:56;;;;;;;16.60;10.02;;;4.50;99.90;;;;;;4776315;29;20147;-77
2022/04/08 07:09:23;;;;;;;21.30;10.98;;;4.40;99.90;;;;;;4769541;29;20055;-77
2022/04/08 07:11:50;;;;;;;21.73;11.48;;;4.50;99.90;;;;;;4778535;30;20074;-77
2022/04/08 07:14:17;;;;;;;18.85;11.18;;;4.50;99.90;;;;;;4779667;29;20539;-77
2022/04/08 07:16:45;;;;;;;21.60;11.15;;;4.60;99.90;;;;;;4790813;29;20071;-77
2022/04/08 07:19:12;;;;;;;21.13;13.32;;;4.70;99.90;;;;;;4777865;29;20138;-73
2022/04/08 07:21:38;;;;;;;18.33;12.70;;;4.60;99.90;;;;;;4776988;29;20085;-72
2022/04/08 07:24:05;;;;;;;22.25;12.25;;;4.60;99.90;;;;;;4777750;30;20617;-73
2022/04/08 07:26:32;;;;;;;20.40;12.70;;;4.70;99.90;;;;;;4765942;29;20335;-73
2022/04/08 07:29:00;;;;;;;25.38;14.00;;;4.80;99.90;;;;;;4791865;29;20578;-73
2022/04/08 07:31:27;;;;;;;25.40;14.77;;;4.90;99.90;;;;;;4776345;30;20055;-72
2022/04/08 07:33:54;;;;;;;16.52;14.10;;;4.80;99.90;;;;;;4777577;29;20228;-74
2022/04/08 07:36:21;;;;;;;18.30;13.90;;;4.80;99.90;;;;;;4779130;30;20148;-73
2022/04/08 07:38:48;;;;;;;20.80;13.95;;;4.80;99.90;;;;;;4778409;30;20059;-73
2022/04/08 07:41:15;;;;;;;23.42;15.88;;;4.80;99.90;;;;;;4760792;29;20400;-72
2022/04/08 07:43:41;;;;;;;25.02;16.17;;;4.70;99.90;;;;;;4764578;29;20066;-73
2022/04/08 07:46:08;;;;;;;29.30;17.10;;;4.70;99.90;;;;;;4769385;30;20101;-72
2022/04/08 07:48:35;;;;;;;22.75;16.63;;;4.60;99.90;;;;;;4776092;30;20485;-73
2022/04/08 07:51:02;;;;;;;26.83;15.80;;;4.70;99.90;;;;;;4777722;30;20118;-73
2022/04/08 07:53:29;;;;;;;26.05;18.08;;;4.80;99.90;;;;;;4777274;29;20511;-73
2022/04/08 07:55:55;;;;;;;30.13;19.17;;;4.90;99.90;;;;;;4762665;29;20112;-73
2022/04/08 07:58:22;;;;;;;25.60;19.23;;;4.90;99.90;;;;;;4765826;29;20135;-72
2022/04/08 08:00:53;;;;;;;20.55;18.15;;;5.00;99.90;;;;;;4795465;29;20123;-72
2022/04/08 08:03:20;;;;;;;23.00;17.58;;;5.00;99.90;;;;;;4777943;29;20059;-72
2022/04/08 08:05:47;;;;;;;23.65;19.38;;;4.90;99.90;;;;;;4793777;29;20074;-72
2022/04/08 08:08:14;;;;;;;27.23;20.50;;;4.90;99.90;;;;;;4772956;30;20086;-73
2022/04/08 08:10:46;;;;;;;28.50;21.42;;;5.00;99.90;;;;;;4776189;29;20050;-74
2022/04/08 08:13:13;;;;;;;26.88;20.55;;;4.90;99.90;;;;;;4772455;30;20111;-74
2022/04/08 08:15:41;;;;;;;27.67;20.33;;;5.10;99.90;;;;;;4776192;29;20426;-73
2022/04/08 08:18:08;;;;;;;25.48;21.60;;;5.30;99.90;;;;;;4774713;29;20055;-74
2022/04/08 08:20:37;;;;;;;23.23;21.02;;;5.40;99.90;;;;;;4775655;29;20051;-74
2022/04/08 08:23:06;;;;;;;24.83;21.40;;;5.50;99.90;;;;;;4760170;30;20059;-74
2022/04/08 08:25:33;;;;;;;24.00;21.77;;;5.60;99.90;;;;;;4760261;29;20051;-73
2022/04/08 08:28:04;;;;;;;24.30;21.73;;;5.70;99.90;;;;;;4788870;29;20078;-73
2022/04/08 08:30:31;;;;;;;23.67;21.42;;;5.70;99.90;;;;;;4759538;29;20057;-73
2022/04/08 08:32:58;;;;;;;24.50;22.20;;;5.90;99.90;;;;;;4755034;30;20059;-74
2022/04/08 08:35:26;;;;;;;24.20;21.60;;;5.90;99.90;;;;;;4760622;30;20556;-74
2022/04/08 08:37:58;;;;;;;25.38;22.13;;;5.90;99.90;;;;;;4775097;29;20079;-73
2022/04/08 08:40:25;;;;;;;24.17;21.85;;;6.00;99.90;;;;;;4775876;29;20188;-73
2022/04/08 08:42:52;;;;;;;24.73;22.33;;;5.90;99.90;;;;;;4775901;30;20051;-73
2022/04/08 08:45:18;;;;;;;24.50;22.17;;;5.80;99.90;;;;;;4776180;29;20518;-74
2022/04/08 08:47:47;;;;;;;26.00;23.30;;;6.00;99.90;;;;;;4777455;30;20427;-74
2022/04/08 08:50:16;;;;;;;24.42;22.60;;;6.20;99.90;;;;;;4777223;29;20695;-74
2022/04/08 08:52:44;;;;;;;26.92;24.65;;;6.20;99.90;;;;;;4775776;30;20049;-74
2022/04/08 08:55:15;;;;;;;26.63;24.08;;;6.20;99.90;;;;;;4760616;29;20538;-74
2022/04/08 08:57:42;;;;;;;26.58;24.23;;;6.20;99.90;;;;;;4784014;29;20051;-74
2022/04/08 09:00:16;;;;;;;26.48;24.48;;;6.30;99.90;;;;;;4779771;29;20422;-74
2022/04/08 09:02:44;;;;;;;25.42;23.63;;;6.20;99.90;;;;;;4775363;29;20507;-74
2022/04/08 09:05:17;;;;;;;26.45;24.40;;;6.20;99.90;;;;;;4759794;29;20174;-73
2022/04/08 09:07:58;;;;;;;30.15;26.98;;;6.20;99.90;;;;;;4782676;29;20120;-75
2022/04/08 09:10:31;;;;;;;29.48;26.70;;;6.20;99.90;;;;;;4775136;29;20075;-74
2022/04/08 09:13:00;;;;;;;28.60;25.67;;;6.40;99.90;;;;;;4770764;30;20147;-74
2022/04/08 09:15:27;;;;;;;27.23;25.10;;;6.40;99.90;;;;;;4775769;29;20063;-74
2022/04/08 09:18:08;;;;;;;27.67;25.60;;;6.20;99.90;;;;;;4779037;29;20735;-75
2022/04/08 09:20:45;;;;;;;27.30;25.27;;;6.40;99.90;;;;;;4772644;29;20539;-74
2022/04/08 09:23:14;;;;;;;27.23;25.05;;;6.30;99.90;;;;;;4776812;29;20150;-75
2022/04/08 09:25:41;;;;;;;26.50;24.15;;;6.40;99.90;;;;;;4775876;29;20534;-75
2022/04/08 09:28:18;;;;;;;26.25;24.30;;;6.50;99.90;;;;;;4782704;29;20312;-74
2022/04/08 09:30:55;;;;;;;25.33;23.48;;;6.50;99.90;;;;;;4782633;29;20059;-74
2022/04/08 09:33:25;;;;;;;27.20;25.08;;;6.40;99.90;;;;;;4774888;29;20409;-74
2022/04/08 09:35:57;;;;;;;25.05;23.13;;;6.40;99.90;;;;;;4779237;29;20599;-75
2022/04/08 09:38:27;;;;;;;25.38;23.40;;;6.40;99.90;;;;;;4789880;29;20047;-75
2022/04/08 09:41:03;;;;;;;26.63;24.20;;;6.40;99.90;;;;;;4778878;29;20150;-74
2022/04/08 09:43:35;;;;;;;25.33;23.52;;;6.50;99.90;;;;;;4780473;29;20120;-75
2022/04/08 09:46:21;;;;;;;25.77;23.80;;;6.40;99.90;;;;;;4761827;29;20406;-73
2022/04/08 09:48:49;;;;;;;25.02;23.13;;;6.60;99.90;;;;;;4782034;29;20055;-74
2022/04/08 09:51:21;;;;;;;24.63;22.77;;;6.60;99.90;;;;;;4777500;29;20155;-74
2022/04/08 09:54:00;;;;;;;24.73;23.17;;;6.60;99.90;;;;;;4763372;29;20124;-74
2022/04/08 09:56:28;;;;;;;27.13;24.60;;;6.70;99.90;;;;;;4779408;29;20124;-74
2022/04/08 09:59:34;;;;;;;26.70;24.65;;;6.70;99.90;;;;;;4780869;29;20055;-75
2022/04/08 10:02:24;;;;;;;25.73;23.85;;;6.60;99.90;;;;;;4762452;29;20628;-75
2022/04/08 10:05:06;;;;;;;26.45;24.45;;;6.70;99.90;;;;;;4779562;29;20159;-75
2022/04/08 10:07:34;;;;;;;27.80;24.98;;;6.60;99.90;;;;;;4786686;29;20119;-75
2022/04/08 10:10:17;;;;;;;26.63;24.23;;;6.70;99.90;;;;;;4792192;29;20058;-74
2022/04/08 10:13:12;;;;;;;27.27;25.20;;;6.60;99.90;;;;;;4785939;29;20150;-76
2022/04/08 10:15:43;;;;;;;29.77;27.38;;;6.60;99.90;;;;;;4779637;29;20055;-75
2022/04/08 10:18:10;;;;;;;28.52;26.50;;;6.50;99.90;;;;;;4780297;29;20058;-74
2022/04/08 10:20:40;;;;;;;33.42;29.65;;;6.40;99.90;;;;;;4779485;29;20496;-74
2022/04/08 10:23:14;;;;;;;29.13;26.52;;;6.50;99.90;;;;;;4752706;30;20279;-75
2022/04/08 10:25:47;;;;;;;28.00;25.52;;;6.60;99.90;;;;;;4769293;29;20063;-74
2022/04/08 10:28:18;;;;;;;27.95;25.88;;;6.80;99.90;;;;;;4756503;30;20087;-75
2022/04/08 10:30:47;;;;;;;26.55;24.38;;;6.70;99.90;;;;;;4770465;29;20109;-75
2022/04/08 10:33:24;;;;;;;28.50;26.20;;;6.70;99.90;;;;;;4778564;30;20061;-75
2022/04/08 10:35:55;;;;;;;27.17;25.15;;;6.70;99.90;;;;;;4763319;30;20151;-74
2022/04/08 10:38:22;;;;;;;27.55;24.83;;;6.80;99.90;;;;;;4778786;29;20451;-74
2022/04/08 10:40:56;;;;;;;26.92;24.67;;;6.70;99.90;;;;;;4777474;29;20149;-74
2022/04/08 10:43:23;;;;;;;28.08;26.02;;;6.80;99.90;;;;;;4779449;29;20457;-74
2022/04/08 10:45:58;;;;;;;26.13;24.42;;;6.90;99.90;;;;;;4779083;29;20055;-74
2022/04/08 10:48:32;;;;;;;26.90;24.65;;;7.10;99.90;;;;;;4786533;29;20576;-75
2022/04/08 10:51:09;;;;;;;26.15;24.40;;;7.20;99.90;;;;;;4777876;29;20518;-74
2022/04/08 10:53:41;;;;;;;24.85;22.83;;;7.20;99.90;;;;;;4762335;29;20130;-74
2022/04/08 10:56:10;;;;;;;25.42;23.55;;;7.20;99.90;;;;;;4768254;29;20043;-75
2022/04/08 10:58:42;;;;;;;25.05;23.63;;;7.00;99.90;;;;;;4786276;29;20055;-75
2022/04/08 11:01:24;;;;;;;25.33;23.58;;;6.80;99.90;;;;;;4778594;30;20233;-74
2022/04/08 11:04:06;;;;;;;25.98;24.17;;;6.80;99.90;;;;;;4776441;30;20169;-75
2022/04/08 11:06:35;;;;;;;26.38;24.35;;;6.80;99.90;;;;;;4777739;29;20120;-75
2022/04/08 11:09:09;;;;;;;25.70;23.40;;;6.90;99.90;;;;;;4788450;29;20096;-75
2022/04/08 11:11:38;;;;;;;27.23;24.98;;;7.00;99.90;;;;;;4777038;29;20055;-75
2022/04/08 11:14:06;;;;;;;25.80;23.73;;;7.00;99.90;;;;;;4779020;29;20047;-75
2022/04/08 11:16:40;;;;;;;26.55;24.40;;;6.90;99.90;;;;;;4780018;29;20055;-75
2022/04/08 11:19:09;;;;;;;25.45;23.77;;;7.00;99.90;;;;;;4779190;30;20527;-75
2022/04/08 11:21:40;;;;;;;26.10;24.25;;;7.10;99.90;;;;;;4778750;30;20598;-75
2022/04/08 11:24:13;;;;;;;26.15;24.27;;;7.10;99.90;;;;;;4777358;29;20121;-74
2022/04/08 11:26:49;;;;;;;25.75;24.05;;;7.30;99.90;;;;;;4780423;29;20144;-75
2022/04/08 11:29:22;;;;;;;25.35;23.23;;;7.40;99.90;;;;;;4772750;29;20089;-74
2022/04/08 11:31:51;;;;;;;26.38;24.15;;;7.40;99.90;;;;;;4777648;30;20124;-77
2022/04/08 11:34:22;;;;;;;27.45;25.33;;;7.30;99.90;;;;;;4776823;29;20059;-73
2022/04/08 11:36:54;;;;;;;25.98;23.92;;;7.30;99.90;;;;;;4777606;29;20158;-74
2022/04/08 11:39:22;;;;;;;25.02;23.20;;;7.20;99.90;;;;;;4780421;29;20074;-74
2022/04/08 11:41:53;;;;;;;25.17;23.33;;;7.30;99.90;;;;;;4795357;29;20665;-74
2022/04/08 11:44:21;;;;;;;25.38;23.25;;;7.30;99.90;;;;;;4779744;29;20056;-74
2022/04/08 11:46:48;;;;;;;24.92;23.00;;;7.30;99.90;;;;;;4776982;29;20506;-74
2022/04/08 11:49:18;;;;;;;24.30;22.45;;;7.30;99.90;;;;;;4777468;30;20146;-74
2022/04/08 11:51:45;;;;;;;25.88;23.88;;;7.50;99.90;;;;;;4776869;29;20146;-74
2022/04/08 11:54:13;;;;;;;24.90;23.02;;;7.30;99.90;;;;;;4777245;29;20059;-75
2022/04/08 11:56:48;;;;;;;24.80;22.92;;;7.40;99.90;;;;;;4785167;29;20392;-74
2022/04/08 11:59:19;;;;;;;23.95;22.25;;;7.40;99.90;;;;;;4794535;29;20051;-73
2022/04/08 12:01:46;;;;;;;24.27;22.15;;;7.30;99.90;;;;;;4792937;29;20058;-73
2022/04/08 12:04:13;;;;;;;25.65;23.13;;;7.20;99.90;;;;;;4794026;29;20058;-74
2022/04/08 12:06:41;;;;;;;24.15;22.25;;;7.30;99.90;;;;;;4782857;29;20059;-74
2022/04/08 12:09:10;;;;;;;25.42;23.63;;;7.30;99.90;;;;;;4790285;29;20104;-74
2022/04/08 12:11:42;;;;;;;25.83;23.50;;;7.40;99.90;;;;;;4778722;29;20055;-75
2022/04/08 12:14:23;;;;;;;25.55;23.73;;;7.50;99.90;;;;;;5045838;27;20401;-69
2022/04/08 12:17:00;;;;;;;27.75;25.65;;;7.60;99.90;;;;;;5015357;27;20164;-70
2022/04/08 12:19:27;;;;;;;25.08;22.85;;;7.50;99.90;;;;;;5007770;28;20084;-70
2022/04/08 12:22:07;;;;;;;26.47;24.20;;;7.80;99.90;;;;;;5007009;27;20046;-69
2022/04/08 12:24:34;;;;;;;24.65;22.85;;;7.80;99.90;;;;;;5006698;28;20110;-70
2022/04/08 12:27:03;;;;;;;26.40;24.15;;;7.80;99.90;;;;;;4998632;27;20128;-70
2022/04/08 12:29:30;;;;;;;26.17;24.02;;;7.70;99.90;;;;;;5003313;28;20046;-70
2022/04/08 12:31:58;;;;;;;25.45;23.52;;;7.80;99.90;;;;;;5004827;27;20100;-68
2022/04/08 12:34:26;;;;;;;25.25;23.30;;;7.80;99.90;;;;;;5037402;22;20139;-73
2022/04/08 12:36:53;;;;;;;24.75;22.83;;;7.70;99.90;;;;;;5038633;28;20045;-74
2022/04/08 12:39:20;;;;;;;28.80;26.00;;;7.80;99.90;;;;;;5049262;28;20052;-73
2022/04/08 12:41:47;;;;;;;26.00;24.10;;;7.90;99.90;;;;;;5039630;28;20080;-73
2022/04/08 12:44:15;;;;;;;25.58;23.70;;;7.90;99.90;;;;;;5065961;28;20131;-73
2022/04/08 12:46:42;;;;;;;25.23;23.48;;;7.90;99.90;;;;;;5053398;28;20052;-73
2022/04/08 12:49:08;;;;;;;29.05;26.42;;;8.00;99.90;;;;;;5057125;28;20053;-73
2022/04/08 12:51:35;;;;;;;27.13;24.85;;;7.90;99.90;;;;;;5038123;28;20080;-73